Time;durP1;ratioP1;P1;durP2;ratioP2;P2;SDS_P1;SDS_P2;PMS_P1;PMS_P2;Temp;Humidity;BMP_temperature;BMP_pressure;BME280_temperature;BME280_humidity;BME280_pressure;Samples;Min_cycle;Max_cycle;Signal;HPM_P1;HPM_P2
2022/05/24 00:01:35;;;;;;;11.93;7.95;;;14.00;99.90;;;;;;5038617;28;20051;-63
2022/05/24 00:04:01;;;;;;;14.18;8.63;;;14.00;99.90;;;;;;5032081;28;20387;-63
2022/05/24 00:06:30;;;;;;;12.02;8.25;;;14.00;99.90;;;;;;5052812;28;20052;-63
2022/05/24 00:08:56;;;;;;;10.60;8.00;;;14.00;99.90;;;;;;5034550;28;20094;-63
2022/05/24 00:11:22;;;;;;;12.27;8.20;;;14.00;99.90;;;;;;5034252;28;20127;-63
2022/05/24 00:13:48;;;;;;;9.98;8.02;;;13.90;99.90;;;;;;5037765;28;20049;-63
2022/05/24 00:16:14;;;;;;;11.30;8.55;;;13.80;99.90;;;;;;5015728;28;20539;-63
2022/05/24 00:18:40;;;;;;;10.80;8.25;;;13.80;99.90;;;;;;5027081;28;20090;-63
2022/05/24 00:21:07;;;;;;;12.15;7.63;;;13.80;99.90;;;;;;5038510;28;20041;-63
2022/05/24 00:23:34;;;;;;;12.38;8.18;;;13.70;99.90;;;;;;5032708;28;20045;-62
2022/05/24 00:26:07;;;;;;;12.27;7.80;;;13.70;99.90;;;;;;5035589;28;20435;-63
2022/05/24 00:28:35;;;;;;;10.90;7.82;;;13.60;99.90;;;;;;5033319;28;20095;-62
2022/05/24 00:31:02;;;;;;;11.75;8.63;;;13.50;99.90;;;;;;5046409;28;20049;-62
2022/05/24 00:33:28;;;;;;;11.48;8.45;;;13.60;99.90;;;;;;5035312;28;20788;-62
2022/05/24 00:35:55;;;;;;;10.73;7.60;;;13.60;99.90;;;;;;5030666;28;20044;-63
2022/05/24 00:38:36;;;;;;;12.82;7.95;;;13.50;99.90;;;;;;5028314;28;20049;-63
2022/05/24 00:41:08;;;;;;;12.52;7.30;;;13.50;99.90;;;;;;5024595;28;20491;-63
2022/05/24 00:44:04;;;;;;;13.00;7.78;;;13.50;99.90;;;;;;5031739;28;20945;-63
2022/05/24 00:46:58;;;;;;;11.82;7.50;;;13.50;99.90;;;;;;5055215;28;20041;-63
2022/05/24 00:49:33;;;;;;;13.60;7.63;;;13.50;99.90;;;;;;5052681;28;20048;-63
2022/05/24 00:52:25;;;;;;;11.23;7.40;;;13.50;99.90;;;;;;5032451;28;20094;-63
2022/05/24 00:54:52;;;;;;;12.38;7.40;;;13.50;99.90;;;;;;5050626;28;20044;-63
2022/05/24 00:57:17;;;;;;;10.07;6.85;;;13.50;99.90;;;;;;5025974;28;21579;-63
2022/05/24 01:00:01;;;;;;;10.90;6.88;;;13.40;99.90;;;;;;5027485;28;20041;-63
2022/05/24 01:05:28;;;;;;;8.63;5.70;;;13.40;99.90;;;;;;961475;22;21590;-63
2022/05/24 01:07:54;;;;;;;9.48;5.45;;;13.40;99.90;;;;;;5032732;28;20044;-63
2022/05/24 01:10:31;;;;;;;7.90;5.18;;;13.30;99.90;;;;;;5010993;28;20058;-63
2022/05/24 01:13:08;;;;;;;6.97;4.47;;;13.30;99.90;;;;;;5030554;28;20041;-63
2022/05/24 01:15:36;;;;;;;8.65;5.18;;;13.30;99.90;;;;;;5023706;28;20050;-63
2022/05/24 01:18:03;;;;;;;10.38;4.85;;;13.20;99.90;;;;;;5031866;28;20533;-63
2022/05/24 01:20:29;;;;;;;7.53;4.93;;;13.10;99.90;;;;;;5021022;28;20380;-63
2022/05/24 01:23:13;;;;;;;6.97;5.07;;;13.10;99.90;;;;;;5030346;28;20369;-63
2022/05/24 01:25:39;;;;;;;7.60;4.95;;;13.10;99.90;;;;;;5027115;28;20218;-63
2022/05/24 01:28:12;;;;;;;9.35;5.25;;;13.00;99.90;;;;;;5031072;28;20577;-63
2022/05/24 01:30:38;;;;;;;9.98;5.43;;;12.90;99.90;;;;;;5026623;28;20463;-63
2022/05/24 01:38:33;;;;;;;9.00;5.47;;;12.80;99.90;;;;;;5031167;28;20389;-63
2022/05/24 01:41:00;;;;;;;9.10;6.07;;;12.80;99.90;;;;;;5013978;28;20513;-63
2022/05/24 01:43:27;;;;;;;7.57;5.57;;;12.70;99.90;;;;;;5036594;28;20218;-63
2022/05/24 01:46:06;;;;;;;9.43;5.70;;;12.70;99.90;;;;;;5028447;28;20037;-63
2022/05/24 01:48:37;;;;;;;9.52;6.13;;;12.60;99.90;;;;;;5029366;28;20044;-63
2022/05/24 01:51:05;;;;;;;7.70;5.93;;;12.60;99.90;;;;;;5028556;28;20395;-63
2022/05/24 01:53:37;;;;;;;9.90;6.13;;;12.60;99.90;;;;;;5032257;28;20052;-63
2022/05/24 01:56:06;;;;;;;7.80;6.18;;;12.60;99.90;;;;;;5031188;28;20069;-63
2022/05/24 01:58:36;;;;;;;8.57;6.45;;;12.50;99.90;;;;;;5020974;28;20040;-62
2022/05/24 02:01:26;;;;;;;11.50;6.82;;;12.50;99.90;;;;;;5032394;28;20163;-63
2022/05/24 02:03:52;;;;;;;10.90;6.43;;;12.50;99.90;;;;;;5024565;28;23833;-63
2022/05/24 02:06:26;;;;;;;12.43;7.05;;;12.50;99.90;;;;;;5032261;28;20056;-63
2022/05/24 02:08:53;;;;;;;10.70;7.47;;;12.40;99.90;;;;;;5047659;28;20040;-63
2022/05/24 02:11:23;;;;;;;14.82;7.63;;;12.40;99.90;;;;;;5012658;28;20048;-63
2022/05/24 02:13:55;;;;;;;8.60;7.40;;;12.40;99.90;;;;;;5032154;28;20052;-63
2022/05/24 02:16:23;;;;;;;10.32;7.72;;;12.40;99.90;;;;;;5016351;28;20115;-63
2022/05/24 02:18:51;;;;;;;8.30;7.22;;;12.50;99.90;;;;;;5023511;28;20388;-63
2022/05/24 02:21:18;;;;;;;12.23;7.72;;;12.50;99.90;;;;;;5019772;28;20076;-63
2022/05/24 02:23:48;;;;;;;9.35;7.00;;;12.50;99.90;;;;;;5025355;28;20056;-63
2022/05/24 02:26:17;;;;;;;11.90;7.45;;;12.50;99.90;;;;;;5027340;28;20044;-62
2022/05/24 02:28:43;;;;;;;11.68;7.88;;;12.50;99.90;;;;;;5029597;28;20064;-62
2022/05/24 02:31:13;;;;;;;9.55;7.60;;;12.50;99.90;;;;;;5043387;28;20055;-63
2022/05/24 02:33:39;;;;;;;11.13;7.85;;;12.50;99.90;;;;;;5011471;28;20041;-63
2022/05/24 02:36:06;;;;;;;11.00;8.02;;;12.60;99.90;;;;;;5025749;28;20051;-63
2022/05/24 02:38:33;;;;;;;14.25;8.27;;;12.60;99.90;;;;;;5035665;28;20049;-63
2022/05/24 02:43:43;;;;;;;12.00;8.25;;;12.60;99.90;;;;;;5029131;28;20044;-63
2022/05/24 02:46:10;;;;;;;11.65;8.50;;;12.60;99.90;;;;;;5025658;28;20545;-63
2022/05/24 02:48:36;;;;;;;10.15;8.15;;;12.60;99.90;;;;;;5020902;28;20059;-63
2022/05/24 02:51:09;;;;;;;12.57;8.13;;;12.60;99.90;;;;;;5030826;28;20048;-63
2022/05/24 02:53:36;;;;;;;14.27;9.52;;;12.60;99.90;;;;;;5027859;28;20047;-63
2022/05/24 02:56:03;;;;;;;13.40;9.00;;;12.60;99.90;;;;;;5029480;28;20051;-62
2022/05/24 02:58:29;;;;;;;10.98;8.60;;;12.70;99.90;;;;;;5029942;28;20055;-63
2022/05/24 03:00:55;;;;;;;15.93;9.38;;;12.70;99.90;;;;;;5031467;28;20033;-63
2022/05/24 03:03:21;;;;;;;11.38;8.40;;;12.70;99.90;;;;;;5013346;28;20041;-63
2022/05/24 03:05:47;;;;;;;14.48;8.88;;;12.70;99.90;;;;;;5028370;28;20041;-63
2022/05/24 03:10:57;;;;;;;15.52;9.27;;;12.70;99.90;;;;;;5008769;28;20048;-63
2022/05/24 03:16:09;;;;;;;12.75;9.90;;;12.70;99.90;;;;;;5028379;28;20037;-63
2022/05/24 03:18:35;;;;;;;14.75;10.82;;;12.70;99.90;;;;;;5036552;28;20044;-63
2022/05/24 03:21:00;;;;;;;16.15;10.52;;;12.70;99.90;;;;;;5027015;28;20041;-63
2022/05/24 03:23:26;;;;;;;15.82;11.02;;;12.80;99.90;;;;;;5032229;28;20135;-63
2022/05/24 03:25:52;;;;;;;16.73;10.63;;;12.80;99.90;;;;;;5009236;28;20048;-63
2022/05/24 03:28:20;;;;;;;14.02;11.27;;;12.80;99.90;;;;;;5025549;28;20041;-63
2022/05/24 03:30:46;;;;;;;17.15;11.70;;;12.80;99.90;;;;;;5036774;28;20295;-63
2022/05/24 03:33:12;;;;;;;20.52;13.70;;;12.80;99.90;;;;;;5034069;28;20044;-63
2022/05/24 03:35:39;;;;;;;16.85;12.38;;;12.90;99.90;;;;;;5025525;28;20072;-63
2022/05/24 03:38:05;;;;;;;20.38;14.38;;;12.90;99.90;;;;;;5038480;28;20063;-63
2022/05/24 03:40:31;;;;;;;19.25;14.73;;;13.00;99.90;;;;;;5031385;28;20037;-63
2022/05/24 03:42:57;;;;;;;19.77;14.90;;;13.00;99.90;;;;;;5040974;28;20040;-63
2022/05/24 03:45:23;;;;;;;18.92;14.90;;;13.00;99.90;;;;;;5025811;28;20079;-64
2022/05/24 03:47:49;;;;;;;23.20;15.32;;;13.00;99.90;;;;;;5047025;28;20048;-63
2022/05/24 03:50:16;;;;;;;23.60;15.52;;;13.10;99.90;;;;;;5017784;28;20048;-63
2022/05/24 03:52:42;;;;;;;23.65;16.23;;;13.10;99.90;;;;;;5033616;28;20053;-63
2022/05/24 03:55:09;;;;;;;23.63;16.95;;;13.10;99.90;;;;;;5020892;28;20612;-63
2022/05/24 04:00:22;;;;;;;26.88;17.73;;;13.20;99.90;;;;;;5031923;28;20502;-63
2022/05/24 04:02:48;;;;;;;28.20;18.95;;;13.20;99.90;;;;;;5037957;28;20160;-63
2022/05/24 04:05:14;;;;;;;26.45;19.13;;;13.20;99.90;;;;;;5039957;28;20037;-63
2022/05/24 04:07:41;;;;;;;31.83;20.63;;;13.30;99.90;;;;;;5037077;28;20048;-63
2022/05/24 04:10:10;;;;;;;30.38;21.45;;;13.30;99.90;;;;;;5031140;28;20127;-63
2022/05/24 04:12:36;;;;;;;28.75;20.75;;;13.30;99.90;;;;;;5013418;28;20491;-63
2022/05/24 04:15:03;;;;;;;33.05;21.60;;;13.30;99.90;;;;;;5031096;28;20493;-63
2022/05/24 04:17:28;;;;;;;29.58;21.23;;;13.40;99.90;;;;;;5032577;28;20099;-63
2022/05/24 04:19:54;;;;;;;31.98;21.48;;;13.40;99.90;;;;;;5029006;28;20604;-63
2022/05/24 04:22:20;;;;;;;31.88;21.65;;;13.40;99.90;;;;;;5031748;28;20546;-63
2022/05/24 04:24:46;;;;;;;35.67;21.27;;;13.40;99.90;;;;;;5048239;28;20075;-63
2022/05/24 04:27:13;;;;;;;29.65;20.20;;;13.50;99.90;;;;;;5028800;28;20060;-63
2022/05/24 04:29:40;;;;;;;28.20;19.13;;;13.50;99.90;;;;;;5022442;28;20106;-63
2022/05/24 04:32:10;;;;;;;28.00;18.98;;;13.50;99.90;;;;;;5030823;28;20088;-63
2022/05/24 04:34:36;;;;;;;24.52;17.10;;;13.50;99.90;;;;;;5034553;28;20045;-63
2022/05/24 04:37:07;;;;;;;22.27;16.30;;;13.60;99.90;;;;;;5027032;28;20870;-63
2022/05/24 04:39:32;;;;;;;24.70;16.55;;;13.60;99.90;;;;;;5014400;28;20040;-63
2022/05/24 04:44:43;;;;;;;21.60;15.70;;;13.60;99.90;;;;;;5018392;28;20109;-63
2022/05/24 04:47:09;;;;;;;21.65;14.50;;;13.60;99.90;;;;;;5020666;28;20040;-63
2022/05/24 04:49:41;;;;;;;23.25;14.70;;;13.60;99.90;;;;;;5008612;28;20501;-63
2022/05/24 04:52:09;;;;;;;21.73;14.70;;;13.60;99.90;;;;;;5034611;28;20531;-63
2022/05/24 04:54:37;;;;;;;20.75;14.75;;;13.60;99.90;;;;;;5023873;28;20044;-63
2022/05/24 04:57:03;;;;;;;21.65;13.95;;;13.60;99.90;;;;;;5031832;28;20054;-63
2022/05/24 04:59:28;;;;;;;20.85;13.93;;;13.70;99.90;;;;;;5036174;28;20048;-63
2022/05/24 05:01:54;;;;;;;17.27;12.82;;;13.70;99.90;;;;;;5043929;28;20047;-62
2022/05/24 05:04:23;;;;;;;22.75;13.23;;;13.70;99.90;;;;;;5030620;28;20073;-63
2022/05/24 05:06:49;;;;;;;20.38;13.18;;;13.70;99.90;;;;;;5037235;28;20053;-63
2022/05/24 05:09:15;;;;;;;19.85;13.02;;;13.70;99.90;;;;;;5031715;28;20053;-63
2022/05/24 05:11:42;;;;;;;18.13;11.75;;;13.70;99.90;;;;;;5038893;28;20041;-63
2022/05/24 05:14:09;;;;;;;21.73;12.43;;;13.70;99.90;;;;;;5036930;28;20056;-63
2022/05/24 05:16:36;;;;;;;20.58;12.48;;;13.80;99.90;;;;;;5047301;28;20083;-63
2022/05/24 05:19:06;;;;;;;16.33;12.05;;;13.80;99.90;;;;;;5031915;28;20478;-63
2022/05/24 05:21:34;;;;;;;17.88;12.45;;;13.80;99.90;;;;;;5030507;28;20063;-63
2022/05/24 05:24:01;;;;;;;19.08;12.88;;;13.80;99.90;;;;;;5029399;28;20100;-63
2022/05/24 05:26:27;;;;;;;16.40;11.88;;;13.80;99.90;;;;;;5016419;28;20087;-63
2022/05/24 05:28:54;;;;;;;18.48;12.32;;;13.90;99.90;;;;;;5027130;28;20190;-62
2022/05/24 05:31:23;;;;;;;17.13;11.07;;;13.90;99.90;;;;;;5017826;28;20048;-63
2022/05/24 05:33:50;;;;;;;19.83;11.93;;;14.00;99.90;;;;;;5028919;28;20710;-63
2022/05/24 05:36:17;;;;;;;19.25;12.60;;;14.00;99.90;;;;;;5031787;28;20070;-62
2022/05/24 05:38:47;;;;;;;14.70;10.95;;;14.10;99.90;;;;;;5028191;28;20051;-62
2022/05/24 05:41:23;;;;;;;18.25;12.50;;;14.10;99.90;;;;;;5031536;28;20558;-62
2022/05/24 05:43:49;;;;;;;15.45;11.88;;;14.10;99.90;;;;;;5014131;28;20505;-63
2022/05/24 05:46:16;;;;;;;17.38;11.98;;;14.10;99.90;;;;;;5030287;28;20547;-63
2022/05/24 05:48:43;;;;;;;21.65;13.38;;;14.10;99.90;;;;;;5026090;28;20045;-63
2022/05/24 05:51:11;;;;;;;18.10;11.88;;;14.10;99.90;;;;;;5010890;28;20055;-62
2022/05/24 05:53:38;;;;;;;21.10;13.07;;;14.10;99.90;;;;;;5023407;28;20542;-63
2022/05/24 05:56:07;;;;;;;20.27;13.02;;;14.10;99.90;;;;;;5034953;28;20055;-62
2022/05/24 05:58:33;;;;;;;21.65;13.35;;;14.00;99.90;;;;;;5017432;28;20453;-63
2022/05/24 06:01:00;;;;;;;18.40;13.07;;;14.10;99.90;;;;;;5021571;28;20037;-63
2022/05/24 06:03:26;;;;;;;20.33;13.13;;;14.10;99.90;;;;;;5025578;28;20521;-62
2022/05/24 06:05:53;;;;;;;21.08;12.65;;;14.10;99.90;;;;;;5037062;28;20048;-62
2022/05/24 06:08:19;;;;;;;20.75;13.07;;;14.10;99.90;;;;;;5029376;28;20507;-62
2022/05/24 06:10:45;;;;;;;22.02;14.02;;;14.00;99.90;;;;;;5045031;28;20266;-62
2022/05/24 06:13:11;;;;;;;20.58;13.52;;;14.00;99.90;;;;;;5016858;28;20499;-62
2022/05/24 06:15:37;;;;;;;24.25;14.23;;;14.00;99.90;;;;;;5025125;28;21693;-62
2022/05/24 06:18:04;;;;;;;21.98;14.45;;;14.00;99.90;;;;;;5039680;28;20080;-63
2022/05/24 06:20:32;;;;;;;24.65;14.00;;;13.90;99.90;;;;;;5049895;28;20556;-62
2022/05/24 06:22:58;;;;;;;19.38;12.88;;;13.90;99.90;;;;;;5032181;28;20481;-62
2022/05/24 06:25:27;;;;;;;18.10;13.10;;;13.90;99.90;;;;;;5029044;28;20537;-62
2022/05/24 06:27:54;;;;;;;17.52;11.43;;;13.90;99.90;;;;;;5047417;28;20155;-61
2022/05/24 06:30:21;;;;;;;20.58;12.90;;;13.90;99.90;;;;;;5018136;28;20048;-62
2022/05/24 06:32:48;;;;;;;20.30;12.40;;;13.90;99.90;;;;;;5043443;28;20052;-62
2022/05/24 06:35:14;;;;;;;20.02;11.50;;;13.90;99.90;;;;;;5032698;28;20087;-61
2022/05/24 06:37:43;;;;;;;18.35;10.45;;;13.90;99.90;;;;;;5048789;28;20044;-61
2022/05/24 06:40:11;;;;;;;14.65;10.30;;;13.90;99.90;;;;;;5027407;28;20052;-62
2022/05/24 06:42:37;;;;;;;16.98;9.10;;;13.90;99.90;;;;;;5062479;28;20048;-62
2022/05/24 06:45:04;;;;;;;12.18;8.40;;;13.90;99.90;;;;;;5028645;28;20134;-62
2022/05/24 06:47:30;;;;;;;12.77;8.63;;;14.00;99.90;;;;;;5049791;28;20076;-61
2022/05/24 06:49:56;;;;;;;11.60;8.63;;;14.00;99.90;;;;;;5025876;28;20056;-62
2022/05/24 06:52:23;;;;;;;13.93;8.20;;;14.00;99.90;;;;;;5023444;28;20041;-61
2022/05/24 06:54:49;;;;;;;15.73;9.73;;;14.00;99.90;;;;;;5010265;28;20044;-62
2022/05/24 06:57:15;;;;;;;12.60;8.98;;;14.00;99.90;;;;;;5039718;28;20041;-62
2022/05/24 07:02:26;;;;;;;12.45;8.70;;;14.20;99.90;;;;;;5020145;28;20048;-62
2022/05/24 07:04:59;;;;;;;17.38;9.60;;;14.20;99.90;;;;;;5031203;28;20535;-62
2022/05/24 07:07:25;;;;;;;13.80;9.48;;;14.30;99.90;;;;;;5024264;28;20060;-62
2022/05/24 07:09:51;;;;;;;16.65;10.25;;;14.40;99.90;;;;;;5025866;28;20377;-62
2022/05/24 07:12:22;;;;;;;14.00;9.85;;;14.40;99.90;;;;;;5020893;28;20094;-63
2022/05/24 07:14:48;;;;;;;17.17;10.27;;;14.50;99.90;;;;;;5023332;28;20482;-62
2022/05/24 07:17:15;;;;;;;17.13;10.52;;;14.60;99.90;;;;;;5032774;28;20037;-62
2022/05/24 07:19:41;;;;;;;15.70;10.75;;;14.70;99.90;;;;;;5027836;28;20066;-62
2022/05/24 07:22:08;;;;;;;16.30;10.90;;;14.90;99.90;;;;;;5031162;28;20052;-62
2022/05/24 07:24:34;;;;;;;17.00;10.68;;;14.90;99.90;;;;;;5014682;28;20037;-62
2022/05/24 07:27:01;;;;;;;13.38;10.00;;;15.10;99.90;;;;;;5026864;28;20056;-62
2022/05/24 07:29:27;;;;;;;19.98;9.77;;;15.10;99.90;;;;;;5043285;28;20059;-62
2022/05/24 07:31:53;;;;;;;15.93;8.82;;;15.20;99.90;;;;;;5037596;28;20051;-62
2022/05/24 07:34:19;;;;;;;12.60;7.28;;;15.20;99.90;;;;;;5029878;28;20394;-63
2022/05/24 07:36:45;;;;;;;10.30;6.38;;;15.20;99.90;;;;;;5045116;28;20080;-62
2022/05/24 07:39:11;;;;;;;13.75;6.68;;;15.20;99.90;;;;;;5022271;28;20661;-62
2022/05/24 07:47:09;;;;;;;10.38;5.60;;;15.10;99.90;;;;;;5029140;28;20089;-62
2022/05/24 07:49:36;;;;;;;9.75;5.35;;;15.00;99.90;;;;;;5043551;28;20589;-62
2022/05/24 07:52:02;;;;;;;7.55;5.10;;;15.00;99.90;;;;;;5029713;28;20053;-62
2022/05/24 07:54:28;;;;;;;10.18;5.15;;;14.90;99.90;;;;;;5034992;28;20119;-63
2022/05/24 07:56:54;;;;;;;8.55;5.30;;;14.90;99.90;;;;;;5021285;28;20551;-63
2022/05/24 07:59:20;;;;;;;9.23;5.50;;;14.80;99.90;;;;;;5012308;28;20041;-62
2022/05/24 08:01:46;;;;;;;9.23;4.90;;;14.70;99.90;;;;;;5028900;28;20110;-62
2022/05/24 08:04:12;;;;;;;8.93;5.10;;;14.70;99.90;;;;;;5026406;28;20044;-63
2022/05/24 08:06:37;;;;;;;13.52;5.28;;;14.70;99.90;;;;;;5005190;28;20065;-63
2022/05/24 08:09:04;;;;;;;11.77;5.25;;;14.60;99.90;;;;;;5022485;28;20045;-63
2022/05/24 08:11:29;;;;;;;12.50;5.70;;;14.60;99.90;;;;;;5005440;28;20044;-63
2022/05/24 08:13:58;;;;;;;12.35;6.28;;;14.60;99.90;;;;;;5026262;28;20036;-62
2022/05/24 08:16:25;;;;;;;8.90;5.40;;;14.50;99.90;;;;;;5025805;28;20122;-62
2022/05/24 08:18:51;;;;;;;10.23;6.10;;;14.40;99.90;;;;;;5025040;28;20052;-63
2022/05/24 08:21:17;;;;;;;11.55;5.40;;;14.40;99.90;;;;;;5042133;28;20047;-62
2022/05/24 08:23:43;;;;;;;8.20;5.25;;;14.40;99.90;;;;;;5043602;28;20131;-62
2022/05/24 08:26:09;;;;;;;10.98;6.00;;;14.40;99.90;;;;;;5030830;28;20049;-62
2022/05/24 08:28:35;;;;;;;10.93;5.57;;;14.40;99.90;;;;;;5030035;28;20055;-62
2022/05/24 08:31:00;;;;;;;11.48;5.65;;;14.40;99.90;;;;;;5030049;28;20055;-62
2022/05/24 08:33:28;;;;;;;10.57;5.25;;;14.40;99.90;;;;;;5030627;28;20049;-62
2022/05/24 08:35:54;;;;;;;14.48;6.38;;;14.40;99.90;;;;;;5046251;28;20041;-62
2022/05/24 08:38:21;;;;;;;13.00;5.22;;;14.40;99.90;;;;;;5028905;28;20052;-62
2022/05/24 08:40:48;;;;;;;11.00;5.78;;;14.40;99.90;;;;;;5029889;28;20052;-62
2022/05/24 08:43:38;;;;;;;10.43;5.93;;;14.50;99.90;;;;;;5028913;28;20044;-62
2022/05/24 08:49:12;;;;;;;12.03;7.00;;;14.50;99.90;;;;;;5039518;28;20052;-62
2022/05/24 08:51:46;;;;;;;12.07;6.85;;;14.50;99.90;;;;;;5035526;28;20323;-61
2022/05/24 08:54:16;;;;;;;12.10;6.63;;;14.60;99.90;;;;;;5049686;28;20063;-62
2022/05/24 08:56:49;;;;;;;13.05;6.95;;;14.60;99.90;;;;;;5033178;28;20087;-61
2022/05/24 08:59:37;;;;;;;14.20;7.75;;;14.60;99.90;;;;;;5052188;28;20044;-62
2022/05/24 09:02:05;;;;;;;14.90;8.32;;;14.70;99.90;;;;;;5036093;28;20056;-62
2022/05/24 09:04:31;;;;;;;13.52;8.20;;;14.70;99.90;;;;;;5026888;28;20097;-61
2022/05/24 09:07:37;;;;;;;19.33;8.52;;;14.70;99.90;;;;;;5033963;28;20068;-62
2022/05/24 09:10:08;;;;;;;17.50;9.02;;;14.70;99.90;;;;;;5048870;28;20290;-62
2022/05/24 09:13:04;;;;;;;15.60;8.52;;;14.60;99.90;;;;;;5035180;28;20105;-61
2022/05/24 09:15:42;;;;;;;10.95;7.75;;;14.50;99.90;;;;;;5050241;28;20444;-62
2022/05/24 09:18:37;;;;;;;12.13;7.40;;;14.50;99.90;;;;;;5037934;28;20049;-61
2022/05/24 09:21:03;;;;;;;6.00;3.58;;;14.60;99.90;;;;;;5030727;28;20483;-61
2022/05/24 09:23:57;;;;;;;8.93;3.58;;;14.60;99.90;;;;;;5028008;28;20097;-62
2022/05/24 09:26:24;;;;;;;7.45;3.67;;;14.60;99.90;;;;;;5028137;28;20053;-61
2022/05/24 09:28:58;;;;;;;5.35;3.03;;;14.40;99.90;;;;;;5031847;28;20439;-62
2022/05/24 09:31:43;;;;;;;5.25;3.17;;;14.40;99.90;;;;;;5035379;28;20510;-62
2022/05/24 09:34:12;;;;;;;8.18;3.38;;;14.30;99.90;;;;;;5046080;28;20073;-62
2022/05/24 09:36:41;;;;;;;8.88;3.42;;;14.20;99.90;;;;;;5022288;28;20502;-61
2022/05/24 09:39:32;;;;;;;3.38;2.47;;;14.20;99.90;;;;;;5037649;28;20040;-61
2022/05/24 09:42:03;;;;;;;4.30;2.67;;;14.20;99.90;;;;;;5050147;28;20051;-62
2022/05/24 09:44:46;;;;;;;4.38;2.72;;;14.20;99.90;;;;;;5040993;28;20044;-61
2022/05/24 09:47:27;;;;;;;;;;;14.30;99.90;;;;;;5032834;28;20495;-62
2022/05/24 09:49:54;;;;;;;5.95;2.60;;;14.40;99.90;;;;;;5038997;28;20241;-61
2022/05/24 09:52:20;;;;;;;4.93;2.65;;;14.50;99.90;;;;;;5030813;28;20142;-62
2022/05/24 09:55:00;;;;;;;3.38;2.20;;;14.60;99.90;;;;;;5029655;28;20053;-62
2022/05/24 09:57:29;;;;;;;4.65;2.78;;;14.60;99.90;;;;;;5041613;28;20087;-62
2022/05/24 10:00:20;;;;;;;5.15;2.60;;;14.70;99.90;;;;;;5035268;28;20045;-62
2022/05/24 10:02:47;;;;;;;4.68;2.60;;;14.70;99.90;;;;;;5029511;28;20503;-62
2022/05/24 10:05:19;;;;;;;4.32;2.47;;;14.70;99.90;;;;;;5027362;28;20048;-62
2022/05/24 10:08:01;;;;;;;3.33;2.28;;;14.80;99.90;;;;;;5022681;28;20055;-62
2022/05/24 10:10:39;;;;;;;2.92;2.28;;;15.00;99.90;;;;;;5034546;28;20063;-62
2022/05/24 10:13:13;;;;;;;3.80;2.10;;;15.20;99.90;;;;;;5046425;28;20044;-62
2022/05/24 10:16:11;;;;;;;3.65;2.30;;;15.30;99.90;;;;;;5021481;28;20044;-62
2022/05/24 10:18:45;;;;;;;6.10;2.85;;;15.60;99.90;;;;;;5044471;28;20462;-63
2022/05/24 10:21:25;;;;;;;5.30;2.55;;;15.70;99.90;;;;;;5017516;28;20041;-62
2022/05/24 10:24:24;;;;;;;5.63;2.65;;;15.70;99.90;;;;;;5028139;28;20037;-63
2022/05/24 10:27:13;;;;;;;4.03;2.50;;;15.60;99.90;;;;;;5021177;28;20052;-62
2022/05/24 10:29:49;;;;;;;4.93;2.53;;;15.60;99.90;;;;;;5041445;28;20770;-62
2022/05/24 10:39:13;;;;;;;3.80;2.70;;;15.40;99.90;;;;;;5032681;28;20048;-63
2022/05/24 10:41:53;;;;;;;4.95;2.53;;;15.30;99.90;;;;;;5050782;28;21234;-62
2022/05/24 10:44:46;;;;;;;8.18;3.45;;;15.10;99.90;;;;;;5024243;28;20041;-62
2022/05/24 10:47:25;;;;;;;5.90;2.90;;;15.00;99.90;;;;;;5041124;28;20056;-62
2022/05/24 10:50:00;;;;;;;6.28;2.95;;;14.80;99.90;;;;;;5027312;28;20110;-63
2022/05/24 10:52:41;;;;;;;5.88;3.17;;;14.70;99.90;;;;;;5029480;28;20052;-62
2022/05/24 10:55:19;;;;;;;4.80;3.40;;;14.80;99.90;;;;;;4997756;28;20044;-62
2022/05/24 10:58:01;;;;;;;9.13;3.22;;;15.00;99.90;;;;;;5009044;28;20126;-63
2022/05/24 11:00:34;;;;;;;5.45;2.88;;;15.20;99.90;;;;;;5028448;28;20045;-62
2022/05/24 11:03:11;;;;;;;5.10;2.47;;;15.50;99.90;;;;;;5031901;28;20080;-63
2022/05/24 11:05:45;;;;;;;7.18;2.70;;;15.90;99.90;;;;;;5016556;28;20068;-63
2022/05/24 11:08:17;;;;;;;3.80;2.60;;;16.20;99.90;;;;;;5027316;28;20158;-63
2022/05/24 11:10:46;;;;;;;6.13;2.92;;;16.20;99.90;;;;;;4992299;28;20053;-63
2022/05/24 11:13:32;;;;;;;3.88;2.75;;;16.20;99.90;;;;;;5023610;28;20117;-62
2022/05/24 11:16:06;;;;;;;5.00;3.05;;;16.30;99.90;;;;;;5043871;28;20044;-63
2022/05/24 11:18:32;;;;;;;8.60;3.42;;;16.20;99.90;;;;;;5025991;28;20045;-63
2022/05/24 11:21:35;;;;;;;4.13;2.85;;;16.00;99.90;;;;;;5027720;28;20036;-62
2022/05/24 11:24:20;;;;;;;5.07;2.42;;;15.70;99.90;;;;;;5027173;28;20045;-62
2022/05/24 11:26:54;;;;;;;7.97;2.35;;;15.60;99.90;;;;;;5015280;28;20045;-63
2022/05/24 11:29:26;;;;;;;5.90;2.80;;;15.40;99.90;;;;;;5024714;28;20048;-63
2022/05/24 11:32:03;;;;;;;8.05;2.95;;;15.10;99.90;;;;;;5024978;28;20046;-62
2022/05/24 11:34:35;;;;;;;8.27;3.70;;;14.90;99.90;;;;;;5032464;28;20635;-62
2022/05/24 11:37:20;;;;;;;4.95;3.05;;;14.70;99.90;;;;;;5026652;28;20044;-62
2022/05/24 11:39:46;;;;;;;4.95;2.83;;;14.60;99.90;;;;;;5026250;28;20044;-62
2022/05/24 11:42:45;;;;;;;5.22;2.80;;;14.70;99.90;;;;;;5028574;28;20045;-62
2022/05/24 11:45:32;;;;;;;4.90;2.35;;;15.00;99.90;;;;;;5037879;28;20052;-62
2022/05/24 11:48:07;;;;;;;9.15;2.13;;;15.60;99.90;;;;;;5019796;28;20053;-62
2022/05/24 11:50:42;;;;;;;3.22;1.95;;;15.90;99.90;;;;;;5040570;28;20048;-62
2022/05/24 11:53:30;;;;;;;3.20;1.92;;;16.20;99.90;;;;;;5030693;28;20088;-63
2022/05/24 11:55:56;;;;;;;2.55;1.90;;;16.50;99.90;;;;;;5050399;28;20076;-63
2022/05/24 11:58:22;;;;;;;4.60;1.90;;;16.90;99.90;;;;;;5030269;28;20682;-63
2022/05/24 12:01:10;;;;;;;2.90;1.70;;;17.00;99.90;;;;;;5029779;28;20083;-62
2022/05/24 12:09:16;;;;;;;6.15;1.60;;;16.40;99.90;;;;;;5037807;28;20147;-63
2022/05/24 12:11:42;;;;;;;4.20;1.55;;;16.10;99.90;;;;;;5022258;28;20099;-63
2022/05/24 12:14:16;;;;;;;5.43;1.77;;;15.90;99.90;;;;;;5026588;28;20041;-65
2022/05/24 12:16:53;;;;;;;4.63;1.70;;;15.80;99.90;;;;;;5032201;28;20041;-65
2022/05/24 12:19:43;;;;;;;5.13;1.77;;;15.90;99.90;;;;;;5027334;28;20045;-64
2022/05/24 12:22:14;;;;;;;4.65;1.63;;;15.90;99.90;;;;;;5023054;28;20049;-65
2022/05/24 12:24:40;;;;;;;4.80;1.33;;;16.00;99.90;;;;;;5026205;28;20144;-65
2022/05/24 12:27:27;;;;;;;3.25;1.00;;;16.10;99.90;;;;;;5020640;28;20044;-65
2022/05/24 12:29:57;;;;;;;7.80;1.40;;;16.30;99.90;;;;;;5029116;28;20052;-65
2022/05/24 12:32:28;;;;;;;3.50;1.30;;;16.40;99.90;;;;;;5037203;28;20058;-65
2022/05/24 12:35:06;;;;;;;6.15;1.40;;;16.40;99.90;;;;;;5023154;28;20195;-65
2022/05/24 12:37:35;;;;;;;4.25;2.03;;;16.30;99.90;;;;;;5033729;28;20463;-65
2022/05/24 12:40:07;;;;;;;5.70;1.30;;;16.20;99.90;;;;;;5005004;28;20503;-65
2022/05/24 12:42:33;;;;;;;5.13;1.40;;;16.00;99.90;;;;;;5024293;28;20048;-64
2022/05/24 12:45:05;;;;;;;3.45;1.52;;;15.90;99.90;;;;;;5026753;28;20479;-63
2022/05/24 12:47:31;;;;;;;3.42;1.20;;;16.10;99.90;;;;;;5049587;28;20583;-64
2022/05/24 12:49:59;;;;;;;4.63;1.48;;;16.30;99.90;;;;;;5040017;28;20036;-63
2022/05/24 12:52:40;;;;;;;3.40;0.90;;;16.70;99.90;;;;;;5033025;28;20458;-62
2022/05/24 12:55:08;;;;;;;5.05;1.48;;;17.00;99.90;;;;;;5052999;28;20125;-63
2022/05/24 12:57:34;;;;;;;6.65;1.42;;;17.30;99.90;;;;;;5037256;28;20044;-63
2022/05/24 13:00:18;;;;;;;4.40;1.50;;;17.20;99.90;;;;;;5032551;28;20101;-63
2022/05/24 13:02:46;;;;;;;8.18;1.60;;;17.30;99.90;;;;;;5051514;28;20052;-63
2022/05/24 13:05:20;;;;;;;5.50;1.52;;;17.20;99.90;;;;;;5046367;28;20490;-63
2022/05/24 13:07:54;;;;;;;3.70;1.60;;;17.10;99.90;;;;;;5019472;28;20054;-63
2022/05/24 13:10:23;;;;;;;3.75;1.10;;;16.80;99.90;;;;;;5031456;28;20486;-62
2022/05/24 13:12:59;;;;;;;7.43;1.42;;;16.70;99.90;;;;;;5038444;28;20040;-63
2022/05/24 13:15:41;;;;;;;4.80;1.08;;;16.50;99.90;;;;;;5035431;28;20036;-63
2022/05/24 13:18:31;;;;;;;2.97;1.00;;;16.60;99.90;;;;;;5035578;28;20116;-63
2022/05/24 13:21:06;;;;;;;3.10;1.02;;;16.80;99.90;;;;;;5052160;28;20052;-63
2022/05/24 13:23:36;;;;;;;1.42;0.73;;;17.00;99.90;;;;;;5039338;28;20052;-63
2022/05/24 13:26:02;;;;;;;3.88;1.30;;;17.20;99.90;;;;;;5034752;28;20041;-62
2022/05/24 13:28:51;;;;;;;5.65;1.25;;;17.50;99.80;;;;;;5023063;28;20040;-63
2022/05/24 13:34:30;;;;;;;6.35;1.00;;;18.10;99.20;;;;;;5045562;28;20083;-62
2022/05/24 13:37:08;;;;;;;4.30;0.77;;;18.30;97.90;;;;;;5030024;28;20045;-63
2022/05/24 13:39:43;;;;;;;1.92;0.82;;;18.20;96.30;;;;;;5036163;28;20047;-63
2022/05/24 13:42:26;;;;;;;4.63;1.15;;;18.20;95.30;;;;;;5034401;28;20046;-63
2022/05/24 13:45:34;;;;;;;8.10;1.00;;;18.40;95.00;;;;;;5043154;28;20631;-63
2022/05/24 13:48:21;;;;;;;3.05;1.10;;;18.40;94.00;;;;;;5026901;28;20060;-62